Forside
METAR-TAF:

METAR-TAF

Lufthavne :

Searcy Municipal Airport

Searcy, Arkansas, USA

Breddekreds: 35-12-43N, længdekreds: 091-44-14W, højde: 81 m

Aktuelle vejr

Denne rapport blev lavet for 13 minutter siden, kl. 16:56 UTC
Vind stille
Temperatur 17°C
Fugtighed 55%
Tryk 1025 hPa
Sigt: 16.1 km
skyfri

METAR: KSRC 231656Z AUTO 00000KT 10SM CLR 17/08 A3028 RMK AO2 SLP263 T01720083

Tid: 12:09 (17:09 UTC)


TAF: fraværende

Vejrobservationer og prognoser fra mere end 4000 lufthavne (METAR og TAF).

De gule og røde prikker repræsenterer de meteorologiske stationer.

Flyt musen over at se navnet på stationen.

Så klik over at se vejr observationer og prognoser.

At skifte det kort: Klik på de grønne knapper med et sort kors for at zoome ind; på den grønne knap med en bindestreg for at zoome ud; eller på de grønne pile for tilstødende kort.


METAR-TAF: